Flight Track Log - Related Links

Times and Time Zones

All times are in EDT time to prevent confusion due to time zone crossing. See the EJA929 flight status page for this flight to view local times or setup timezone preferences in your user account.

Time Position Orientation Groundspeed Altitude Reporting Facility
EDT Latitude Longitude Course Direction KTS MPH feet Rate Location/Type
Thu 11:42:59 AM 37.7500 -122.3000 85° East 200 230 3,300  Level Northern Cal TRACON
Thu 11:43:59 AM 37.8000 -122.3500 322° Northwest 234 269 6,200 2,750 Climbing Northern Cal TRACON
Thu 11:44:59 AM 37.8500 -122.3667 345° North 263 303 8,800 2,333 Climbing Northern Cal TRACON
Thu 11:46:05 AM 37.8833 -122.2667 67° East 312 359 11,100 1,843 Climbing Northern Cal TRACON
Thu 11:47:19 AM 37.9094 -122.1158 78° East 343 395 13,100 1,588 Climbing Oakland Center
Thu 11:48:00 AM 37.7879 -121.1656 85° East  Level Estimated
Thu 11:48:21 AM 37.9306 -121.9867 78° East 372 428 14,700  Level Oakland Center
Thu 11:49:22 AM 37.9494 -121.8511 80° East 389 448 16,000 1,171 Climbing Oakland Center
Thu 11:50:24 AM 37.9717 -121.7097 79° East 406 467 17,100 1,065 Climbing Oakland Center
Thu 11:51:26 AM 37.9944 -121.5594 79° East 427 491 18,200 1,220 Climbing Oakland Center
Thu 11:52:27 AM 38.0181 -121.3883 80° East 439 505 19,600 1,317 Climbing Oakland Center
Thu 11:53:29 AM 38.0408 -121.2333 79° East 449 517 20,900 1,268 Climbing Oakland Center
Thu 11:54:30 AM 38.0636 -121.0750 80° East 458 527 22,200 1,220 Climbing Oakland Center
Thu 11:55:32 AM 38.0872 -120.9133 79° East 466 536 23,400 1,171 Climbing Oakland Center
Thu 11:56:33 AM 38.1086 -120.7469 81° East 477 549 24,600 1,220 Climbing Oakland Center
Thu 11:57:35 AM 38.1317 -120.5767 80° East 488 562 25,900 1,512 Climbing Oakland Center
Thu 11:58:36 AM 38.1592 -120.3697 80° East 496 571 27,700 1,463 Climbing Oakland Center
Thu 11:59:38 AM 38.1825 -120.1942 80° East 504 580 28,900 1,171 Climbing Oakland Center
Thu 12:00:39 PM 38.2050 -120.0186 81° East 505 581 30,100 1,171 Climbing Oakland Center
Thu 12:01:41 PM 38.2272 -119.8358 81° East 518 596 31,300 1,161 Climbing Oakland Center
Thu 12:02:43 PM 38.2522 -119.6497 80° East 531 611 32,500 1,366 Climbing Oakland Center
Thu 12:03:44 PM 38.2756 -119.4389 82° East 538 619 34,100 1,463 Climbing Oakland Center
Thu 12:04:46 PM 38.2958 -119.2744 81° East 541 623 35,500 1,756 Climbing Oakland Center
Thu 12:05:47 PM 38.3236 -119.0506 81° East 537 618 37,700 1,902 Climbing Oakland Center
Thu 12:06:49 PM 38.3450 -118.8650 82° East 534 615 39,400 1,268 Climbing Oakland Center
Thu 12:07:50 PM 38.3669 -118.6783 81° East 537 618 40,300 787 Climbing Oakland Center
Thu 12:08:51 PM 38.3889 -118.4900 81° East 539 620 41,000 341 Climbing Oakland Center
Thu 12:09:53 PM 38.4103 -118.2986 82° East 547 629 41,000  Level Oakland Center
Thu 12:10:54 PM 38.4350 -118.0819 82° East 565 650 41,000  Level Oakland Center
Thu 12:11:56 PM 38.4594 -117.8636 82° East 570 656 41,000  Level Oakland Center
Thu 12:12:57 PM 38.4811 -117.6594 82° East 575 662 41,000  Level Oakland Center
Thu 12:13:44 PM 38.4944 -117.5375 82° East 577 664 41,000  Level Salt Lake Center
Thu 12:13:59 PM 38.5031 -117.4553 82° East 575 662 41,000  Level Oakland Center
Thu 12:15:00 PM 38.5161 -117.2500 85° East 574 661 41,000  Level Oakland Center
Thu 12:15:47 PM 38.5106 -117.0833 92° East 580 667 41,000  Level Salt Lake Center
Thu 12:16:49 PM 38.5000 -116.8758 94° East 579 666 41,000  Level Salt Lake Center
Thu 12:17:51 PM 38.4889 -116.6692 94° East 579 666 41,000  Level Salt Lake Center
Thu 12:18:53 PM 38.4775 -116.4619 94° East 582 670 41,000  Level Salt Lake Center
Thu 12:19:55 PM 38.4650 -116.2561 94° East 582 670 41,000  Level Salt Lake Center
Thu 12:20:57 PM 38.4531 -116.0508 94° East 578 665 41,000  Level Salt Lake Center
Thu 12:21:58 PM 38.4394 -115.8481 95° East 576 663 41,000  Level Salt Lake Center
Thu 12:23:00 PM 38.4269 -115.6453 94° East 573 659 41,000  Level Salt Lake Center
Thu 12:24:02 PM 38.4122 -115.4017 94° East 574 661 41,000  Level Salt Lake Center
Thu 12:25:04 PM 38.4014 -115.2225 94° East 576 663 41,000  Level Salt Lake Center
Thu 12:26:06 PM 38.3875 -115.0217 95° East 572 658 41,000  Level Salt Lake Center
Thu 12:27:08 PM 38.3703 -114.7797 95° East 573 659 41,000  Level Salt Lake Center
Thu 12:28:09 PM 38.3561 -114.5800 95° East 568 654 41,000  Level Salt Lake Center
Thu 12:29:11 PM 38.3406 -114.3792 96° East 570 656 41,000  Level Salt Lake Center
Thu 12:30:13 PM 38.3272 -114.1783 95° East 569 655 41,000  Level Salt Lake Center
Thu 12:31:15 PM 38.3117 -113.9792 96° East 567 652 41,000  Level Salt Lake Center
Thu 12:32:17 PM 38.2967 -113.7800 95° East 566 651 41,000  Level Salt Lake Center
Thu 12:33:19 PM 38.2811 -113.5808 96° East 564 649 41,000  Level Salt Lake Center
Thu 12:34:20 PM 38.2644 -113.3428 95° East 563 648 41,000  Level Salt Lake Center
Thu 12:35:22 PM 38.2508 -113.1425 95° East 565 650 41,000  Level Salt Lake Center
Thu 12:36:24 PM 38.2364 -112.9392 95° East 572 658 41,000  Level Salt Lake Center
Thu 12:37:26 PM 38.2208 -112.7364 96° East 574 661 41,000  Level Salt Lake Center
Thu 12:38:28 PM 38.2067 -112.5375 95° East 566 651 41,000  Level Salt Lake Center
Thu 12:39:30 PM 38.1911 -112.3389 96° East 564 649 41,000  Level Salt Lake Center
Thu 12:40:31 PM 38.1767 -112.1433 95° East 558 642 41,000  Level Salt Lake Center
Thu 12:42:00 PM 38.1519 -111.8801 97° East  Level FlightAware Approximate
Thu 12:42:35 PM 38.1414 -111.7125 97° East 558 642 41,000  Level Salt Lake Center
Thu 12:43:37 PM 38.1242 -111.5156 96° East 560 644 41,000  Level Salt Lake Center
Thu 12:44:38 PM 38.1072 -111.3194 96° East 560 644 41,000  Level Salt Lake Center
Thu 12:45:40 PM 38.0908 -111.1228 96° East 560 644 41,000  Level Salt Lake Center
Thu 12:46:42 PM 38.0725 -110.9297 97° East 554 638 41,000  Level Salt Lake Center
Thu 12:47:41 PM 38.0522 -110.7189 97° East 556 640 41,000  Level Denver Center
Thu 12:48:43 PM 38.0342 -110.5311 97° East 561 646 41,000  Level Denver Center
Thu 12:49:45 PM 38.0139 -110.3150 97° East 556 640 41,000  Level Denver Center
Thu 12:50:47 PM 37.9958 -110.1272 97° East 557 641 41,000  Level Denver Center
Thu 12:51:49 PM 37.9742 -109.9086 97° East 558 642 41,000  Level Denver Center
Thu 12:52:51 PM 37.9547 -109.7211 97° East 559 643 41,000  Level Denver Center
Thu 12:53:53 PM 37.9358 -109.5319 97° East 564 649 41,000  Level Denver Center
Thu 12:54:56 PM 37.9128 -109.3128 98° East 562 647 41,000  Level Denver Center
Thu 12:55:58 PM 37.8936 -109.1236 97° East 565 650 41,000  Level Denver Center
Thu 12:57:00 PM 37.8697 -108.9031 98° East 564 649 41,000  Level Denver Center
Thu 12:58:02 PM 37.8492 -108.7103 98° East 574 661 41,000  Level Denver Center
Thu 12:59:04 PM 37.8244 -108.4894 98° East 568 654 41,000  Level Denver Center
Thu 01:00:06 PM 37.8028 -108.3017 98° East 566 651 41,000  Level Denver Center
Thu 01:01:08 PM 37.7778 -108.0819 98° East 565 650 41,000  Level Denver Center
Thu 01:02:10 PM 37.7564 -107.8931 98° East 567 652 41,000  Level Denver Center
Thu 01:03:12 PM 37.7292 -107.6717 99° East 569 655 41,000  Level Denver Center
Thu 01:04:14 PM 37.7064 -107.4844 99° East 565 650 41,000  Level Denver Center
Thu 01:05:16 PM 37.6842 -107.2964 98° East 566 651 41,000  Level Denver Center
Thu 01:06:18 PM 37.6564 -107.0778 99° East 564 649 41,000  Level Denver Center
Thu 01:07:20 PM 37.6344 -106.8928 98° East 560 644 41,000  Level Denver Center
Thu 01:08:22 PM 37.6058 -106.6750 99° East 563 648 41,000  Level Denver Center
Thu 01:09:24 PM 37.5831 -106.4908 99° East 558 642 41,000  Level Denver Center
Thu 01:10:26 PM 37.5547 -106.2764 99° East 556 640 41,000 -48 Level Denver Center
Thu 01:11:28 PM 37.5294 -106.0917 100° East 558 642 40,900 -624 Descending Denver Center
Thu 01:12:31 PM 37.5003 -105.8739 100° East 565 650 39,700 -1,296 Descending Denver Center
Thu 01:13:33 PM 37.4731 -105.6819 100° East 580 667 38,200 -1,306 Descending Denver Center
Thu 01:14:35 PM 37.4442 -105.4547 99° East 589 678 37,000 -581 Descending Denver Center
Thu 01:15:37 PM 37.4181 -105.2583 99° East 593 682 37,000  Level Denver Center
Thu 01:16:39 PM 37.3867 -105.0450 100° East 601 692 37,000  Level Denver Center
Thu 01:17:41 PM 37.3553 -104.8169 100° East 596 686 37,000  Level Denver Center
Thu 01:18:43 PM 37.3256 -104.6194 101° East 600 690 37,000  Level Denver Center
Thu 01:19:45 PM 37.2914 -104.3919 101° East 600 690 37,000  Level Denver Center
Thu 01:20:47 PM 37.2611 -104.1953 101° East 602 693 37,000  Level Denver Center
Thu 01:21:49 PM 37.2269 -103.9675 101° East 603 694 37,000  Level Denver Center
Thu 01:22:51 PM 37.1969 -103.7722 101° East 602 693 37,000  Level Denver Center
Thu 01:23:53 PM 37.1617 -103.5431 101° East 602 693 37,000  Level Denver Center
Thu 01:24:55 PM 37.1319 -103.3469 101° East 601 692 37,000  Level Denver Center
Thu 01:25:57 PM 37.0947 -103.1172 101° East 604 695 37,000  Level Denver Center
Thu 01:26:59 PM 37.0633 -102.9183 101° East 608 700 37,000  Level Denver Center
Thu 01:27:58 PM 37.0294 -102.7106 101° East 607 699 37,000  Level Kansas City Center
Thu 01:28:14 PM 37.0203 -102.6542 101° East 610 702 37,000  Level Albuquerque Center
Thu 01:29:16 PM 36.9869 -102.4475 101° East 607 699 37,000  Level Albuquerque Center
Thu 01:30:18 PM 36.9478 -102.2194 102° East 604 695 37,000  Level Albuquerque Center
Thu 01:31:02 PM 36.9256 -102.0875 102° East 604 695 37,000  Level Kansas City Center
Thu 01:32:04 PM 36.8856 -101.8594 102° East 605 696 37,000  Level Kansas City Center
Thu 01:33:06 PM 36.8525 -101.6647 102° East 602 693 37,000  Level Kansas City Center
Thu 01:34:07 PM 36.8131 -101.4375 102° East 604 695 37,000  Level Kansas City Center
Thu 01:35:09 PM 36.7786 -101.2419 102° East 604 695 37,000  Level Kansas City Center
Thu 01:36:10 PM 36.7444 -101.0481 102° East 603 694 37,000  Level Kansas City Center
Thu 01:37:12 PM 36.7047 -100.8256 102° East 596 686 37,000  Level Kansas City Center
Thu 01:38:13 PM 36.6694 -100.6331 103° East 597 687 37,000  Level Kansas City Center
Thu 01:39:15 PM 36.6283 -100.4056 103° East 603 694 37,000  Level Kansas City Center
Thu 01:40:16 PM 36.5900 -100.1975 103° East 603 694 37,000  Level Kansas City Center
Thu 01:41:18 PM 36.5508 -99.9950 103° East 602 693 37,000  Level Kansas City Center
Thu 01:42:19 PM 36.5125 -99.7919 103° East 601 692 37,000  Level Kansas City Center
Thu 01:43:21 PM 36.4739 -99.5900 103° East 598 688 37,000  Level Kansas City Center
Thu 01:44:22 PM 36.4344 -99.3878 104° East 598 688 37,000  Level Kansas City Center
Thu 01:45:23 PM 36.3944 -99.1883 104° East 592 681 37,000  Level Kansas City Center
Thu 01:46:25 PM 36.3556 -98.9831 103° East 598 688 37,000  Level Kansas City Center
Thu 01:47:26 PM 36.3142 -98.7819 104° East 596 686 37,000  Level Kansas City Center
Thu 01:48:28 PM 36.2750 -98.5794 103° East 597 687 37,000  Level Kansas City Center
Thu 01:49:29 PM 36.2347 -98.3794 104° East 595 685 37,000  Level Kansas City Center
Thu 01:50:31 PM 36.1944 -98.1836 104° East 589 678 37,000  Level Kansas City Center
Thu 01:51:32 PM 36.1508 -97.9711 104° East 587 676 37,000  Level Kansas City Center
Thu 01:52:34 PM 36.1106 -97.7767 104° East 585 673 37,000  Level Kansas City Center
Thu 01:53:35 PM 36.0697 -97.5811 104° East 584 672 37,000  Level Kansas City Center
Thu 01:54:36 PM 36.0281 -97.3867 105° East 583 671 37,000  Level Kansas City Center
Thu 01:55:38 PM 35.9867 -97.1911 105° East 585 673 37,000  Level Kansas City Center
Thu 01:56:39 PM 35.9447 -96.9975 105° East 582 670 37,000  Level Kansas City Center
Thu 01:57:41 PM 35.8939 -96.7633 105° East 585 673 37,000  Level Kansas City Center
Thu 01:59:44 PM 35.8067 -96.3692 105° East 591 680 37,000  Level Kansas City Center
Thu 02:00:45 PM 35.7747 -96.1772 102° East 586 674 37,000  Level Kansas City Center
Thu 02:01:47 PM 35.8025 -95.9825 80° East 577 664 37,000  Level Kansas City Center
Thu 02:02:48 PM 35.8369 -95.7900 77° East 576 663 37,000  Level Kansas City Center
Thu 02:03:49 PM 35.8722 -95.6000 77° East 576 663 37,000  Level Kansas City Center
Thu 02:04:51 PM 35.9150 -95.4119 74° East 576 663 37,000  Level Kansas City Center
Thu 02:05:52 PM 35.9875 -95.1981 67° East 568 654 37,000  Level Kansas City Center
Thu 02:06:54 PM 36.0328 -95.0117 73° East 571 657 37,000 -634 Level Kansas City Center
Thu 02:07:55 PM 36.0783 -94.8347 72° East 551 634 35,700 -11,455 Descending Kansas City Center
Thu 02:08:44 PM 36.1181 -94.7094 69° East 538 619 16,000 -10,844 Descending Memphis Center
Thu 02:09:44 PM 36.1717 -94.5453 68° East 523 602 16,000  Level Memphis Center
Thu 02:10:44 PM 36.2286 -94.3989 64° Northeast 494 568 16,000  Level Memphis Center
Thu 02:11:44 PM 36.3011 -94.2867 51° Northeast 446 513 16,000  Level Memphis Center
Thu 02:12:44 PM 36.3836 -94.2442 23° Northeast 352 405 16,000  Level Memphis Center
Thu 02:13:44 PM 36.4606 -94.2556 353° North 291 335 16,000  Level Memphis Center
Thu 02:14:44 PM 36.5433 -94.2700 352° North 282 325 16,000  Level Memphis Center
Thu 02:15:44 PM 36.5936 -94.1975 49° Northeast 251 289 16,000  Level Memphis Center
Thu 02:16:44 PM 36.6108 -94.1078 77° East 246 283 16,000  Level Memphis Center
Thu 02:17:44 PM 36.5861 -94.0342 113° Southeast 236 272 16,000  Level Memphis Center
Thu 02:18:44 PM 36.5339 -94.0344 180° South 156 180 16,000  Level Memphis Center
Thu 02:19:44 PM 36.5319 -94.1042 268° West 103 119 16,000  Level Memphis Center
Thu 02:20:44 PM 36.5461 -94.1847 282° West 180 207 16,000  Level Memphis Center
Thu 02:21:44 PM 36.5089 -94.2400 230° Southwest 180 207 16,000  Level Memphis Center
Thu 02:22:44 PM 36.4597 -94.2789 212° Southwest 186 214 16,000  Level Memphis Center
Thu 02:23:44 PM 36.4189 -94.3181 218° Southwest 198 228 16,000  Level Memphis Center
Thu 02:24:44 PM 36.3781 -94.3522 214° Southwest 193 222 16,000  Level Memphis Center
Thu 02:25:44 PM 36.3489 -94.3533 182° South 129 148 16,000  Level Memphis Center
Thu 02:26:44 PM 36.3181 -94.3389 159° South 124 143 16,000  Level Memphis Center
Thu 02:27:44 PM 36.2869 -94.3375 178° South 124 143 16,000  Level Memphis Center

Login

Don't have an account? Register now (free) for customized features, flight alerts, and more!